Alpine, New York
Current Conditions -  °F | °C
As of 12:53 PM on Friday 24 Oct 2014 (Local Time) from KELM Reporting Station
Clear Clear  
Wind Chill: 62°   Ceiling: Unl
Heat Index: 62°   Visibility: 10mi
Dew Point: 41°   Wind: 10mph
Humidity: 46%   Direction: 320°NW
Pressure: 29.92"   Gusts: 22mph
Location:  42.31°N, 76.72°W
Report Text: KELM 241653Z 32009G19KT 280V360 10SM CLR 17/05 A2992 RMK AO2 SLP130 T01670050
Loading
Personal Weather Stations






























Interactive Weather Map New forecast layout! Learn more

10-Day Weather Forecast

Advertisements
Track Severe Weather on mobile